Christina O — C6FN7 — position and weather

sailwx.info

Track history (hours):
 
Tides and Currents Weather Stations Pressure Air Temp Water Temp Dewpoint Dewpoint Depression Visibility Wind Speed Wind Dir Waves Ship Positions

Christina O

Operator: V Ships Leisure SAM

Last reported at 2016-Jul-29 17:16 UTC. Time now 2016-Jul-30 13:10 UTC.
Position N 60°10' E 024°58'.

Length 186 m.

Type: Passenger vessel. MMSI: 308322000.

Date/timePositionNaut miles runAvg speedWind from/ knotsBaromVisibWave heightAir tempDewpointWater temp
2016-Jul-29 17:16N 60°10' E 024°58'18 3.1
2016-Jul-29 11:32N 59°52' E 024°51'1313.6
2016-Jul-29 10:33N 59°44' E 024°30'1413.9
2016-Jul-29 09:32N 59°40' E 024°03'1414.1
2016-Jul-29 08:33N 59°36' E 023°38'1414.1
2016-Jul-29 07:33N 59°31' E 023°12'217 5.2
2016-Jul-27 13:24N 56°10' E 020°36'1416.1
2016-Jul-27 12:33N 55°57' E 020°44'1616.3
2016-Jul-27 11:34N 55°44' E 021°01'4 3.7
2016-Jul-27 10:32N 55°42' E 021°07'0 0.0
2016-Jul-27 09:33N 55°42' E 021°07'0 0.0
2016-Jul-27 08:31N 55°42' E 021°07'0 0.0
2016-Jul-27 07:20N 55°42' E 021°07'0 0.0
2016-Jul-27 06:33N 55°42' E 021°07'0 0.0
2016-Jul-27 05:33N 55°42' E 021°07'0 0.1
2016-Jul-27 04:15N 55°42' E 021°07'6 8.5
2016-Jul-27 03:33N 55°43' E 020°57'1211.8
2016-Jul-27 02:33N 55°37' E 020°39'1312.3
2016-Jul-27 01:31N 55°29' E 020°21'4113.7
2016-Jul-26 22:33N 55°02' E 019°27'1413.8
2016-Jul-26 21:33N 54°51' E 019°13'1413.8
2016-Jul-26 20:33N 54°40' E 018°58'1413.7
2016-Jul-26 19:33N 54°29' E 018°45'6 5.4
2016-Jul-26 18:31N 54°24' E 018°40'0 0.0
2016-Jul-26 17:31N 54°24' E 018°40'0 0.0
2016-Jul-26 16:31N 54°24' E 018°40'0 0.0
2016-Jul-26 15:31N 54°24' E 018°40'0 0.0
2016-Jul-26 14:31N 54°24' E 018°40'0 0.0
2016-Jul-26 13:31N 54°24' E 018°40'0 0.0
2016-Jul-26 12:31N 54°24' E 018°40'0 0.0
2016-Jul-26 11:31N 54°24' E 018°40'1 1.5
2016-Jul-26 10:33N 54°23' E 018°40'6 6.2
2016-Jul-26 09:33N 54°29' E 018°43'1414.1
2016-Jul-26 08:33N 54°41' E 018°56'1313.3
2016-Jul-26 07:33N 54°52' E 018°45'1514.5
2016-Jul-26 06:33N 54°55' E 018°20'1514.9
2016-Jul-26 05:33N 54°54' E 017°54'1515.0
2016-Jul-26 04:33N 54°53' E 017°28'1515.1
2016-Jul-26 03:33N 54°50' E 017°02'1515.0
2016-Jul-26 02:33N 54°47' E 016°36'1515.1
2016-Jul-26 01:33N 54°48' E 016°10'1515.0
2016-Jul-26 00:33N 54°50' E 015°44'1515.1
2016-Jul-25 23:33N 54°52' E 015°18'1515.2
2016-Jul-25 22:33N 54°54' E 014°52'1515.1
2016-Jul-25 21:33N 54°56' E 014°26'1515.0
2016-Jul-25 20:33N 54°58' E 014°00'1514.9
2016-Jul-25 19:33N 55°04' E 013°36'1514.8
2016-Jul-25 18:33N 55°10' E 013°12'1514.9
2016-Jul-25 17:33N 55°16' E 012°48'1211.5
2016-Jul-25 16:33N 55°26' E 012°40'1212.2
2016-Jul-25 15:34N 55°38' E 012°42'5 4.7
2016-Jul-25 14:32N 55°42' E 012°36'0 0.0
2016-Jul-25 13:32N 55°42' E 012°36'0 0.0
2016-Jul-25 12:32N 55°42' E 012°36'0 0.0
2016-Jul-25 11:32N 55°42' E 012°36'0 0.0
2016-Jul-25 10:32N 55°42' E 012°36'0 0.0
2016-Jul-25 09:32N 55°42' E 012°36'0 0.0
2016-Jul-25 08:32N 55°42' E 012°36'0 0.0
2016-Jul-25 07:32N 55°42' E 012°36'0 0.0
2016-Jul-25 06:32N 55°42' E 012°36'0 0.0
2016-Jul-25 05:32N 55°42' E 012°36'2 2.5
2016-Jul-25 04:33N 55°44' E 012°39'1514.6
2016-Jul-25 03:33N 55°58' E 012°38'1414.3
2016-Jul-25 02:34N 56°10' E 012°23'1515.1
2016-Jul-25 01:33N 56°20' E 012°02'1616.3
2016-Jul-25 00:33N 56°36' E 011°56'1616.0
2016-Jul-24 23:33N 56°51' E 011°48'1716.5
2016-Jul-24 22:33N 57°06' E 011°38'1616.3
2016-Jul-24 21:33N 57°22' E 011°29'1616.0
2016-Jul-24 20:34N 57°35' E 011°11'1616.1
2016-Jul-24 19:34N 57°45' E 010°48'1615.7
2016-Jul-24 18:34N 57°47' E 010°19'9816.2
2016-Jul-24 12:30N 57°43' E 007°15'1615.9
2016-Jul-24 11:32N 57°44' E 006°46'1515.5
2016-Jul-24 10:34N 57°50' E 006°21'1615.6
2016-Jul-24 09:33N 58°01' E 005°59'1615.6
2016-Jul-24 08:33N 58°11' E 005°36'1514.8
2016-Jul-24 07:33N 58°21' E 005°15'1717.1
2016-Jul-24 06:33N 58°33' E 004°52'1616.2
2016-Jul-24 05:33N 58°44' E 004°31'1616.3
2016-Jul-24 04:33N 58°56' E 004°09'1815.7
2016-Jul-24 03:23N 59°14' E 004°01'1515.9
2016-Jul-24 02:26N 59°29' E 004°01'  
2016-Jul-21 16:33N 63°06' E 007°43'1 0.7
2016-Jul-21 15:25N 63°07' E 007°44'0 0.0
2016-Jul-21 14:25N 63°07' E 007°44'0 0.0
2016-Jul-21 11:13N 63°07' E 007°44'0 0.0
2016-Jul-21 10:28N 63°07' E 007°44'0 0.0
2016-Jul-21 09:31N 63°07' E 007°44'0 0.0
2016-Jul-21 08:31N 63°07' E 007°44'0 0.0
2016-Jul-21 07:31N 63°07' E 007°44'1 1.2
2016-Jul-21 06:22N 63°06' E 007°41'258 8.8
2016-Jul-20 01:06N 59°08' E 004°14'916.6
2016-Jul-20 00:33N 58°59' E 004°16'1716.8
2016-Jul-19 23:34N 58°47' E 004°39'1716.9
2016-Jul-19 22:34N 58°35' E 005°02'1716.9
2016-Jul-19 21:34N 58°23' E 005°24'1717.3
2016-Jul-19 20:33N 58°11' E 005°49'1717.0
2016-Jul-19 19:33N 58°00' E 006°13'1717.3
2016-Jul-19 18:34N 57°49' E 006°39'1917.6
2016-Jul-19 17:30N 57°48' E 007°14'  
Track history (hours):
 
Tides and Currents Weather Stations Pressure Air Temp Water Temp Dewpoint Dewpoint Depression Visibility Wind Speed Wind Dir Waves Ship Positions

Christina O

Operator: V Ships Leisure SAM

Last reported at 2016-Jul-29 17:16 UTC. Time now 2016-Jul-30 13:10 UTC.
Position N 60°10' E 024°58'.

Length 186 m.

Type: Passenger vessel. MMSI: 308322000.

Date/timePositionNaut miles runAvg speedWind from/ knotsBaromVisibWave heightAir tempDewpointWater temp
2016-Jul-29 17:16N 60°10' E 024°58'18 3.1
2016-Jul-29 11:32N 59°52' E 024°51'1313.6
2016-Jul-29 10:33N 59°44' E 024°30'1413.9
2016-Jul-29 09:32N 59°40' E 024°03'1414.1
2016-Jul-29 08:33N 59°36' E 023°38'1414.1
2016-Jul-29 07:33N 59°31' E 023°12'217 5.2
2016-Jul-27 13:24N 56°10' E 020°36'1416.1
2016-Jul-27 12:33N 55°57' E 020°44'1616.3
2016-Jul-27 11:34N 55°44' E 021°01'4 3.7
2016-Jul-27 10:32N 55°42' E 021°07'0 0.0
2016-Jul-27 09:33N 55°42' E 021°07'0 0.0
2016-Jul-27 08:31N 55°42' E 021°07'0 0.0
2016-Jul-27 07:20N 55°42' E 021°07'0 0.0
2016-Jul-27 06:33N 55°42' E 021°07'0 0.0
2016-Jul-27 05:33N 55°42' E 021°07'0 0.1
2016-Jul-27 04:15N 55°42' E 021°07'6 8.5
2016-Jul-27 03:33N 55°43' E 020°57'1211.8
2016-Jul-27 02:33N 55°37' E 020°39'1312.3
2016-Jul-27 01:31N 55°29' E 020°21'4113.7
2016-Jul-26 22:33N 55°02' E 019°27'1413.8
2016-Jul-26 21:33N 54°51' E 019°13'1413.8
2016-Jul-26 20:33N 54°40' E 018°58'1413.7
2016-Jul-26 19:33N 54°29' E 018°45'6 5.4
2016-Jul-26 18:31N 54°24' E 018°40'0 0.0
2016-Jul-26 17:31N 54°24' E 018°40'0 0.0
2016-Jul-26 16:31N 54°24' E 018°40'0 0.0
2016-Jul-26 15:31N 54°24' E 018°40'0 0.0
2016-Jul-26 14:31N 54°24' E 018°40'0 0.0
2016-Jul-26 13:31N 54°24' E 018°40'0 0.0
2016-Jul-26 12:31N 54°24' E 018°40'0 0.0
2016-Jul-26 11:31N 54°24' E 018°40'1 1.5
2016-Jul-26 10:33N 54°23' E 018°40'6 6.2
2016-Jul-26 09:33N 54°29' E 018°43'1414.1
2016-Jul-26 08:33N 54°41' E 018°56'1313.3
2016-Jul-26 07:33N 54°52' E 018°45'1514.5
2016-Jul-26 06:33N 54°55' E 018°20'1514.9
2016-Jul-26 05:33N 54°54' E 017°54'1515.0
2016-Jul-26 04:33N 54°53' E 017°28'1515.1
2016-Jul-26 03:33N 54°50' E 017°02'1515.0
2016-Jul-26 02:33N 54°47' E 016°36'1515.1
2016-Jul-26 01:33N 54°48' E 016°10'1515.0
2016-Jul-26 00:33N 54°50' E 015°44'1515.1
2016-Jul-25 23:33N 54°52' E 015°18'1515.2
2016-Jul-25 22:33N 54°54' E 014°52'1515.1
2016-Jul-25 21:33N 54°56' E 014°26'1515.0
2016-Jul-25 20:33N 54°58' E 014°00'1514.9
2016-Jul-25 19:33N 55°04' E 013°36'1514.8
2016-Jul-25 18:33N 55°10' E 013°12'1514.9
2016-Jul-25 17:33N 55°16' E 012°48'1211.5
2016-Jul-25 16:33N 55°26' E 012°40'1212.2
2016-Jul-25 15:34N 55°38' E 012°42'5 4.7
2016-Jul-25 14:32N 55°42' E 012°36'0 0.0
2016-Jul-25 13:32N 55°42' E 012°36'0 0.0
2016-Jul-25 12:32N 55°42' E 012°36'0 0.0
2016-Jul-25 11:32N 55°42' E 012°36'0 0.0
2016-Jul-25 10:32N 55°42' E 012°36'0 0.0
2016-Jul-25 09:32N 55°42' E 012°36'0 0.0
2016-Jul-25 08:32N 55°42' E 012°36'0 0.0
2016-Jul-25 07:32N 55°42' E 012°36'0 0.0
2016-Jul-25 06:32N 55°42' E 012°36'0 0.0
2016-Jul-25 05:32N 55°42' E 012°36'2 2.5
2016-Jul-25 04:33N 55°44' E 012°39'1514.6
2016-Jul-25 03:33N 55°58' E 012°38'1414.3
2016-Jul-25 02:34N 56°10' E 012°23'1515.1
2016-Jul-25 01:33N 56°20' E 012°02'1616.3
2016-Jul-25 00:33N 56°36' E 011°56'1616.0
2016-Jul-24 23:33N 56°51' E 011°48'1716.5
2016-Jul-24 22:33N 57°06' E 011°38'1616.3
2016-Jul-24 21:33N 57°22' E 011°29'1616.0
2016-Jul-24 20:34N 57°35' E 011°11'1616.1
2016-Jul-24 19:34N 57°45' E 010°48'1615.7
2016-Jul-24 18:34N 57°47' E 010°19'9816.2
2016-Jul-24 12:30N 57°43' E 007°15'1615.9
2016-Jul-24 11:32N 57°44' E 006°46'1515.5
2016-Jul-24 10:34N 57°50' E 006°21'1615.6
2016-Jul-24 09:33N 58°01' E 005°59'1615.6
2016-Jul-24 08:33N 58°11' E 005°36'1514.8
2016-Jul-24 07:33N 58°21' E 005°15'1717.1
2016-Jul-24 06:33N 58°33' E 004°52'1616.2
2016-Jul-24 05:33N 58°44' E 004°31'1616.3
2016-Jul-24 04:33N 58°56' E 004°09'1815.7
2016-Jul-24 03:23N 59°14' E 004°01'1515.9
2016-Jul-24 02:26N 59°29' E 004°01'  
2016-Jul-21 16:33N 63°06' E 007°43'1 0.7
2016-Jul-21 15:25N 63°07' E 007°44'0 0.0
2016-Jul-21 14:25N 63°07' E 007°44'0 0.0
2016-Jul-21 11:13N 63°07' E 007°44'0 0.0
2016-Jul-21 10:28N 63°07' E 007°44'0 0.0
2016-Jul-21 09:31N 63°07' E 007°44'0 0.0
2016-Jul-21 08:31N 63°07' E 007°44'0 0.0
2016-Jul-21 07:31N 63°07' E 007°44'1 1.2
2016-Jul-21 06:22N 63°06' E 007°41'258 8.8
2016-Jul-20 01:06N 59°08' E 004°14'916.6
2016-Jul-20 00:33N 58°59' E 004°16'1716.8
2016-Jul-19 23:34N 58°47' E 004°39'1716.9
2016-Jul-19 22:34N 58°35' E 005°02'1716.9
2016-Jul-19 21:34N 58°23' E 005°24'1717.3
2016-Jul-19 20:33N 58°11' E 005°49'1717.0
2016-Jul-19 19:33N 58°00' E 006°13'1717.3
2016-Jul-19 18:34N 57°49' E 006°39'1917.6
2016-Jul-19 17:30N 57°48' E 007°14'  

Dump ship's entire track history